createdAt,value
2022-10-24T00:00:09.719Z,12.67
2022-10-24T00:02:59.048Z,12.62
2022-10-24T00:05:27.467Z,12.57
2022-10-24T00:07:55.813Z,12.54
2022-10-24T00:11:24.547Z,12.51
2022-10-24T00:13:54.579Z,12.41
2022-10-24T00:16:22.912Z,12.41
2022-10-24T00:18:51.624Z,12.45
2022-10-24T00:21:20.227Z,12.48
2022-10-24T00:23:48.598Z,12.47
2022-10-24T00:26:17.021Z,12.49
2022-10-24T00:28:45.986Z,12.50
2022-10-24T00:31:16.620Z,12.49
2022-10-24T00:33:46.055Z,12.55
2022-10-24T00:36:17.952Z,12.55
2022-10-24T00:38:47.073Z,12.54
2022-10-24T00:41:16.978Z,12.53
2022-10-24T00:43:46.108Z,12.51
2022-10-24T00:46:16.430Z,12.47
2022-10-24T00:48:48.066Z,12.44
2022-10-24T00:51:21.370Z,12.41
2022-10-24T00:53:52.737Z,12.39
2022-10-24T00:56:25.808Z,12.39
2022-10-24T00:58:56.569Z,12.44
2022-10-24T01:01:26.274Z,12.46
2022-10-24T01:03:54.792Z,12.50
2022-10-24T01:06:36.634Z,12.52
2022-10-24T01:09:16.435Z,12.45
2022-10-24T01:11:56.313Z,12.43
2022-10-24T01:14:36.883Z,12.42
2022-10-24T01:17:13.299Z,12.39
2022-10-24T01:20:26.707Z,12.38
2022-10-24T01:23:05.821Z,12.34
2022-10-24T01:25:44.439Z,12.34
2022-10-24T01:28:15.137Z,12.32
2022-10-24T01:30:45.958Z,12.29
2022-10-24T01:33:23.070Z,12.28
2022-10-24T01:35:58.106Z,12.28
2022-10-24T01:38:33.330Z,12.31
2022-10-24T01:41:05.910Z,12.35
2022-10-24T01:43:39.571Z,12.38
2022-10-24T01:46:12.704Z,12.37
2022-10-24T01:48:45.409Z,12.36
2022-10-24T01:51:17.212Z,12.35
2022-10-24T01:53:47.536Z,12.37
2022-10-24T01:56:16.103Z,12.41
2022-10-24T01:58:45.006Z,12.44
2022-10-24T02:01:19.321Z,12.46
2022-10-24T02:03:53.491Z,12.45
2022-10-24T02:06:28.687Z,12.48
2022-10-24T02:09:01.103Z,12.45
2022-10-24T02:11:30.313Z,12.48
2022-10-24T02:14:05.603Z,12.50
2022-10-24T02:16:35.302Z,12.53
2022-10-24T02:19:04.608Z,12.49
2022-10-24T02:21:37.309Z,12.42
2022-10-24T02:24:15.234Z,12.40
2022-10-24T02:26:51.622Z,12.37
2022-10-24T02:29:27.023Z,12.32
2022-10-24T02:31:58.389Z,12.32
2022-10-24T02:34:31.788Z,12.35
2022-10-24T02:37:03.726Z,12.39
2022-10-24T02:39:34.596Z,12.41
2022-10-24T02:42:05.315Z,12.43
2022-10-24T02:44:35.134Z,12.47
2022-10-24T02:47:06.276Z,12.50
2022-10-24T02:49:34.775Z,12.49
2022-10-24T02:52:03.881Z,12.47
2022-10-24T02:54:32.729Z,12.47
2022-10-24T02:57:03.977Z,12.47
2022-10-24T02:59:32.443Z,12.46
2022-10-24T03:02:03.106Z,12.50
2022-10-24T03:04:31.772Z,12.54
2022-10-24T03:07:00.343Z,12.54
2022-10-24T03:10:02.015Z,12.52
2022-10-24T03:12:30.522Z,12.52
2022-10-24T03:14:58.899Z,12.52
2022-10-24T03:17:29.769Z,12.55
2022-10-24T03:19:58.225Z,12.56
2022-10-24T03:22:30.621Z,12.60
2022-10-24T03:25:01.567Z,12.61
2022-10-24T03:27:30.261Z,12.67
2022-10-24T03:29:58.644Z,12.64
2022-10-24T03:32:27.608Z,12.60
2022-10-24T03:34:56.097Z,12.58
2022-10-24T03:37:24.605Z,12.57
2022-10-24T03:39:52.943Z,12.59
2022-10-24T03:42:21.337Z,12.57
2022-10-24T03:44:49.809Z,12.57
2022-10-24T03:47:19.085Z,12.60
2022-10-24T03:49:47.424Z,12.57
2022-10-24T03:52:16.012Z,12.58
2022-10-24T03:54:44.595Z,12.61
2022-10-24T03:57:14.013Z,12.62
2022-10-24T03:59:42.531Z,12.65
2022-10-24T04:02:12.638Z,12.70
2022-10-24T04:04:41.726Z,12.71
2022-10-24T04:07:10.107Z,12.70
2022-10-24T04:09:38.393Z,12.72
2022-10-24T04:12:07.440Z,12.68
2022-10-24T04:14:36.372Z,12.69
2022-10-24T04:17:04.833Z,12.74
2022-10-24T04:19:33.453Z,12.81
2022-10-24T04:22:01.789Z,12.87
2022-10-24T04:24:30.327Z,12.88
2022-10-24T04:27:00.011Z,12.87
2022-10-24T04:29:28.416Z,12.84
2022-10-24T04:31:56.839Z,12.82
2022-10-24T04:34:25.172Z,12.85
2022-10-24T04:36:53.921Z,12.90
2022-10-24T04:39:22.350Z,12.87
2022-10-24T04:41:50.754Z,12.87
2022-10-24T04:44:19.140Z,12.85
2022-10-24T04:46:50.664Z,12.83
2022-10-24T04:49:20.070Z,12.83
2022-10-24T04:51:48.456Z,12.83
2022-10-24T04:54:16.836Z,12.85
2022-10-24T04:56:45.271Z,12.86
2022-10-24T04:59:15.018Z,12.74
2022-10-24T05:01:43.643Z,12.66
2022-10-24T05:04:12.306Z,12.71
2022-10-24T05:06:44.137Z,12.75
2022-10-24T05:09:13.597Z,12.82
2022-10-24T05:11:42.132Z,12.85
2022-10-24T05:14:10.772Z,12.92
2022-10-24T05:16:39.915Z,12.98
2022-10-24T05:19:08.304Z,13.03
2022-10-24T05:21:36.637Z,13.09
2022-10-24T05:24:05.414Z,13.06
2022-10-24T05:26:34.143Z,13.11
2022-10-24T05:29:02.919Z,13.13
2022-10-24T05:31:33.989Z,13.20
2022-10-24T05:34:02.432Z,13.21
2022-10-24T05:36:31.074Z,13.23
2022-10-24T05:38:59.500Z,13.28
2022-10-24T05:41:27.979Z,13.31
2022-10-24T05:43:56.476Z,13.32
2022-10-24T05:46:25.410Z,13.35
2022-10-24T05:48:54.048Z,13.36
2022-10-24T05:51:22.605Z,13.39
2022-10-24T05:53:50.953Z,13.40
2022-10-24T05:56:19.393Z,13.44
2022-10-24T05:58:50.626Z,13.48
2022-10-24T06:01:19.119Z,13.50
2022-10-24T06:03:47.476Z,13.49
2022-10-24T06:06:15.941Z,13.51
2022-10-24T06:08:44.352Z,13.53
2022-10-24T06:11:16.357Z,13.55
2022-10-24T06:13:44.936Z,13.51
2022-10-24T06:16:13.282Z,13.31
2022-10-24T06:18:42.236Z,13.28
2022-10-24T06:21:12.829Z,13.31
2022-10-24T06:23:41.216Z,13.31
2022-10-24T06:26:10.972Z,13.32
2022-10-24T06:28:40.581Z,13.38
2022-10-24T06:31:13.414Z,13.46
2022-10-24T06:33:41.875Z,13.51
2022-10-24T06:36:11.503Z,13.55
2022-10-24T06:38:40.080Z,13.61
2022-10-24T06:41:11.270Z,13.68
2022-10-24T06:43:41.862Z,13.71
2022-10-24T06:46:13.318Z,13.74
2022-10-24T06:48:42.149Z,13.77
2022-10-24T06:51:14.169Z,13.83
2022-10-24T06:53:42.783Z,13.86
2022-10-24T06:56:12.338Z,13.85
2022-10-24T06:58:41.213Z,13.87
2022-10-24T07:01:12.930Z,13.90
2022-10-24T07:03:41.630Z,13.88
2022-10-24T07:06:15.167Z,13.85
2022-10-24T07:08:43.627Z,13.86
2022-10-24T07:11:12.132Z,13.75
2022-10-24T07:13:40.817Z,13.71
2022-10-24T07:16:09.480Z,13.70
2022-10-24T07:18:38.881Z,13.77
2022-10-24T07:21:09.025Z,13.82
2022-10-24T07:23:37.399Z,13.84
2022-10-24T07:26:07.916Z,13.85
2022-10-24T07:28:38.764Z,13.88
2022-10-24T07:31:07.786Z,13.89
2022-10-24T07:33:38.581Z,13.89
2022-10-24T07:36:08.837Z,13.85
2022-10-24T07:38:37.332Z,13.84
2022-10-24T07:41:06.508Z,13.82
2022-10-24T07:43:34.897Z,13.77
2022-10-24T07:46:07.372Z,13.81
2022-10-24T07:48:37.321Z,13.87
2022-10-24T07:51:08.318Z,13.91
2022-10-24T07:53:37.382Z,13.95
2022-10-24T07:56:09.962Z,14.04
2022-10-24T07:58:38.487Z,14.14
2022-10-24T08:01:09.617Z,14.18
2022-10-24T08:03:38.415Z,14.24
2022-10-24T08:06:10.950Z,14.29
2022-10-24T08:08:40.134Z,14.28
2022-10-24T08:11:10.563Z,14.32
2022-10-24T08:13:39.611Z,14.37
2022-10-24T08:16:10.908Z,14.47
2022-10-24T08:18:40.298Z,14.53
2022-10-24T08:21:11.880Z,14.62
2022-10-24T08:23:43.426Z,14.67
2022-10-24T08:26:14.581Z,14.68
2022-10-24T08:28:43.411Z,14.72
2022-10-24T08:31:14.124Z,14.79
2022-10-24T08:33:42.945Z,14.79
2022-10-24T08:36:19.028Z,14.82
2022-10-24T08:38:47.655Z,14.84
2022-10-24T08:41:23.995Z,14.91
2022-10-24T08:43:53.638Z,14.97
2022-10-24T08:46:37.047Z,15.01
2022-10-24T08:49:16.300Z,14.97
2022-10-24T08:51:50.995Z,15.03
2022-10-24T08:54:24.689Z,15.12
2022-10-24T08:56:57.338Z,15.17
2022-10-24T08:59:28.741Z,15.24
2022-10-24T09:02:03.544Z,15.31
2022-10-24T09:04:43.334Z,15.34
2022-10-24T09:07:18.346Z,15.43
2022-10-24T09:09:50.520Z,15.49
2022-10-24T09:12:20.649Z,15.50
2022-10-24T09:14:57.688Z,15.59
2022-10-24T09:17:31.454Z,15.65
2022-10-24T09:20:06.689Z,15.72
2022-10-24T09:22:38.428Z,15.80
2022-10-24T09:25:14.791Z,15.86
2022-10-24T09:27:44.431Z,15.89
2022-10-24T09:30:18.462Z,15.87
2022-10-24T09:32:47.777Z,15.86
2022-10-24T09:35:21.197Z,15.91
2022-10-24T09:37:51.564Z,15.97
2022-10-24T09:40:23.490Z,16.00
2022-10-24T09:42:58.741Z,15.98
2022-10-24T09:45:34.104Z,15.99
2022-10-24T09:48:07.247Z,16.05
2022-10-24T09:50:36.254Z,16.09
2022-10-24T09:53:05.577Z,16.11
2022-10-24T09:55:46.308Z,16.16
2022-10-24T09:58:20.415Z,16.16
2022-10-24T10:01:01.008Z,16.19
2022-10-24T10:03:31.115Z,16.24
2022-10-24T10:06:05.082Z,16.28
2022-10-24T10:08:36.505Z,16.35
2022-10-24T10:11:08.619Z,16.33
2022-10-24T10:13:49.495Z,16.42
2022-10-24T10:16:24.713Z,16.54
2022-10-24T10:19:03.462Z,16.61
2022-10-24T10:21:55.721Z,16.69
2022-10-24T10:24:38.613Z,16.81
2022-10-24T10:27:37.084Z,16.87
2022-10-24T10:30:17.387Z,16.83
2022-10-24T10:32:56.717Z,16.86
2022-10-24T10:35:32.479Z,16.89
2022-10-24T10:38:13.687Z,16.87
2022-10-24T10:44:49.118Z,16.77
2022-10-24T10:47:34.479Z,16.80
2022-10-24T10:52:55.018Z,16.88
2022-10-24T10:55:35.084Z,16.92
2022-10-24T10:58:17.803Z,16.94
2022-10-24T11:01:00.390Z,16.86
2022-10-24T11:03:37.479Z,16.90
2022-10-24T11:06:20.093Z,16.96
2022-10-24T11:09:10.318Z,17.03
2022-10-24T11:11:42.687Z,17.07
2022-10-24T11:14:26.150Z,17.04
2022-10-24T11:17:01.377Z,17.05
2022-10-24T11:19:39.258Z,17.07
2022-10-24T11:22:15.674Z,17.14
2022-10-24T11:24:53.316Z,17.20
2022-10-24T11:27:28.448Z,17.25
2022-10-24T11:30:02.746Z,17.26
2022-10-24T11:32:38.153Z,17.26
2022-10-24T11:35:22.210Z,17.23
2022-10-24T11:37:54.221Z,17.26
2022-10-24T11:40:25.342Z,17.30
2022-10-24T11:42:58.262Z,17.26
2022-10-24T11:45:33.015Z,17.30
2022-10-24T11:48:12.729Z,17.34
2022-10-24T11:50:48.510Z,17.34
2022-10-24T11:53:39.236Z,17.30
2022-10-24T11:56:30.425Z,17.23
2022-10-24T11:59:02.808Z,17.24
2022-10-24T12:01:47.253Z,17.28
2022-10-24T12:04:38.995Z,17.29
2022-10-24T12:07:48.393Z,17.30
2022-10-24T12:10:40.823Z,17.36
2022-10-24T12:13:26.350Z,17.47
2022-10-24T12:16:02.885Z,17.47
2022-10-24T12:18:36.016Z,17.53
2022-10-24T12:21:08.708Z,17.59
2022-10-24T12:23:39.961Z,17.66
2022-10-24T12:26:18.108Z,17.72
2022-10-24T12:28:55.711Z,17.78
2022-10-24T12:31:29.181Z,17.80
2022-10-24T12:34:49.180Z,17.80
2022-10-24T12:37:36.150Z,17.74
2022-10-24T12:40:41.123Z,17.77
2022-10-24T12:43:26.401Z,17.80
2022-10-24T12:45:56.298Z,17.87
2022-10-24T12:48:33.121Z,17.89
2022-10-24T12:51:29.769Z,17.90
2022-10-24T12:54:05.269Z,17.88
2022-10-24T12:56:34.642Z,17.85
2022-10-24T12:59:17.622Z,17.87
2022-10-24T13:01:48.162Z,17.97
2022-10-24T13:04:46.159Z,18.08
2022-10-24T13:07:50.918Z,18.09
2022-10-24T13:10:39.192Z,18.07
2022-10-24T13:13:30.090Z,18.04
2022-10-24T13:16:07.343Z,18.04
2022-10-24T13:18:50.731Z,18.03
2022-10-24T13:21:26.741Z,18.02
2022-10-24T13:24:11.872Z,18.04
2022-10-24T13:26:45.858Z,18.08
2022-10-24T13:29:36.270Z,18.05
2022-10-24T13:32:30.704Z,17.97
2022-10-24T13:35:01.598Z,18.03
2022-10-24T13:37:35.168Z,18.12
2022-10-24T13:40:14.357Z,18.14
2022-10-24T13:42:51.387Z,18.16
2022-10-24T13:45:26.356Z,18.23
2022-10-24T13:48:00.662Z,18.32
2022-10-24T13:50:33.430Z,18.36
2022-10-24T13:53:13.022Z,18.39
2022-10-24T13:55:47.314Z,18.45
2022-10-24T13:58:20.574Z,18.49
2022-10-24T14:00:54.979Z,18.50
2022-10-24T14:03:26.986Z,18.43
2022-10-24T14:05:59.397Z,18.45
2022-10-24T14:08:32.265Z,18.50
2022-10-24T14:11:04.882Z,18.53
2022-10-24T14:13:38.396Z,18.54
2022-10-24T14:16:08.751Z,18.55
2022-10-24T14:18:38.986Z,18.58
2022-10-24T14:21:19.379Z,18.58
2022-10-24T14:23:56.561Z,18.53
2022-10-24T14:26:26.126Z,18.50
2022-10-24T14:28:59.853Z,18.51
2022-10-24T14:31:34.222Z,18.53
2022-10-24T14:34:05.809Z,18.50
2022-10-24T14:36:37.958Z,18.43
2022-10-24T14:39:07.394Z,18.40
2022-10-24T14:41:42.028Z,18.38
2022-10-24T14:44:15.131Z,18.38
2022-10-24T14:46:45.692Z,18.34
2022-10-24T14:49:29.667Z,18.27
2022-10-24T14:52:36.149Z,18.25
2022-10-24T14:55:17.842Z,18.18
2022-10-24T14:57:59.669Z,18.11
2022-10-24T15:00:38.060Z,18.05
2022-10-24T15:03:41.442Z,18.01
2022-10-24T15:06:21.906Z,17.94
2022-10-24T15:09:15.457Z,17.90
2022-10-24T15:12:35.553Z,17.86
2022-10-24T15:15:24.167Z,17.82
2022-10-24T15:17:56.726Z,17.78
2022-10-24T15:20:29.432Z,17.76
2022-10-24T15:22:59.834Z,17.74
2022-10-24T15:25:34.787Z,17.74
2022-10-24T15:28:07.422Z,17.72
2022-10-24T15:30:37.436Z,17.69
2022-10-24T15:33:07.061Z,17.65
2022-10-24T15:35:42.226Z,17.62
2022-10-24T15:38:15.519Z,17.61
2022-10-24T15:40:46.993Z,17.56
2022-10-24T15:43:18.974Z,17.49
2022-10-24T15:45:47.979Z,17.43
2022-10-24T15:48:17.110Z,17.41
2022-10-24T15:50:47.132Z,17.37
2022-10-24T15:53:19.682Z,17.30
2022-10-24T15:55:48.960Z,17.25
2022-10-24T15:58:18.596Z,17.23
2022-10-24T16:00:48.031Z,17.21
2022-10-24T16:03:21.808Z,17.18
2022-10-24T16:05:54.276Z,17.14
2022-10-24T16:08:23.617Z,17.10
2022-10-24T16:10:53.024Z,17.07
2022-10-24T16:14:11.231Z,17.03
2022-10-24T16:16:54.818Z,16.90
2022-10-24T16:19:25.829Z,16.91
2022-10-24T16:21:57.732Z,16.87
2022-10-24T16:24:27.456Z,16.82
2022-10-24T16:26:56.445Z,16.79
2022-10-24T16:29:25.551Z,16.76
2022-10-24T16:31:55.166Z,16.77
2022-10-24T16:34:24.701Z,16.73
2022-10-24T16:36:54.601Z,16.73
2022-10-24T16:39:23.961Z,16.75
2022-10-24T16:41:55.490Z,16.77
2022-10-24T16:44:26.730Z,16.75
2022-10-24T16:47:32.337Z,16.74
2022-10-24T16:49:59.006Z,16.70
2022-10-24T16:52:28.942Z,16.69
2022-10-24T16:54:58.341Z,16.69
2022-10-24T16:57:27.312Z,16.69
2022-10-24T16:59:59.148Z,16.68
2022-10-24T17:02:28.126Z,16.68
2022-10-24T17:05:04.308Z,16.68
2022-10-24T17:11:43.398Z,16.52
2022-10-24T17:14:05.932Z,16.49
2022-10-24T17:16:35.392Z,16.49
2022-10-24T17:19:15.530Z,16.50
2022-10-24T17:21:48.443Z,16.47
2022-10-24T17:24:54.443Z,16.48
2022-10-24T17:27:58.847Z,16.47
2022-10-24T17:30:29.370Z,16.44
2022-10-24T17:35:45.439Z,16.48
2022-10-24T17:38:28.865Z,16.48
2022-10-24T17:41:01.982Z,16.52
2022-10-24T17:43:31.319Z,16.53
2022-10-24T17:46:06.120Z,16.56
2022-10-24T17:49:03.153Z,16.53
2022-10-24T17:51:36.458Z,16.50
2022-10-24T17:54:08.612Z,16.52
2022-10-24T17:56:37.287Z,16.56
2022-10-24T17:59:16.139Z,16.53
2022-10-24T18:05:37.218Z,16.37
2022-10-24T18:08:07.143Z,16.33
2022-10-24T18:10:37.279Z,16.34
2022-10-24T18:13:09.568Z,16.39
2022-10-24T18:15:44.163Z,16.40
2022-10-24T18:18:12.690Z,16.43
2022-10-24T18:20:41.229Z,16.43
2022-10-24T18:23:09.935Z,16.48
2022-10-24T18:26:14.846Z,16.45
2022-10-24T18:28:45.945Z,16.37
2022-10-24T18:31:20.234Z,16.34
2022-10-24T18:33:49.373Z,16.34
2022-10-24T18:36:20.305Z,16.38
2022-10-24T18:38:48.726Z,16.40
2022-10-24T18:41:33.422Z,16.39
2022-10-24T18:44:21.806Z,16.43
2022-10-24T18:46:55.737Z,16.47
2022-10-24T18:49:25.859Z,16.48
2022-10-24T18:52:04.104Z,16.53
2022-10-24T18:54:39.624Z,16.54
2022-10-24T18:57:21.363Z,16.59
2022-10-24T19:00:07.912Z,16.61
2022-10-24T19:03:24.429Z,16.54
2022-10-24T19:05:58.737Z,16.63
2022-10-24T19:08:30.915Z,16.67
2022-10-24T19:11:05.824Z,16.69
2022-10-24T19:13:36.364Z,16.67
2022-10-24T19:16:18.681Z,16.73
2022-10-24T19:18:52.332Z,16.76
2022-10-24T19:21:22.468Z,16.77
2022-10-24T19:23:51.951Z,16.77
2022-10-24T19:26:20.918Z,16.78
2022-10-24T19:28:53.588Z,16.79
2022-10-24T19:31:22.108Z,16.77
2022-10-24T19:33:53.479Z,16.74
2022-10-24T19:36:22.073Z,16.75
2022-10-24T19:38:55.508Z,16.79
2022-10-24T19:41:24.272Z,16.81
2022-10-24T19:43:52.784Z,16.82
2022-10-24T19:46:21.363Z,16.82
2022-10-24T19:48:51.242Z,16.87
2022-10-24T19:51:32.977Z,16.89
2022-10-24T19:54:01.364Z,16.89
2022-10-24T19:56:30.907Z,16.92
2022-10-24T19:58:59.862Z,16.93
2022-10-24T20:01:29.766Z,16.94
2022-10-24T20:04:03.162Z,16.96
2022-10-24T20:06:31.922Z,16.96
2022-10-24T20:09:00.686Z,16.97
2022-10-24T20:11:29.728Z,16.99
2022-10-24T20:13:58.206Z,16.95
2022-10-24T20:16:26.589Z,16.94
2022-10-24T20:18:55.296Z,16.94
2022-10-24T20:21:23.723Z,16.93
2022-10-24T20:23:55.215Z,16.89
2022-10-24T20:26:28.581Z,16.89
2022-10-24T20:28:58.489Z,16.87
2022-10-24T20:31:29.846Z,16.86
2022-10-24T20:34:05.030Z,16.84
2022-10-24T20:36:37.979Z,16.81
2022-10-24T20:39:07.663Z,16.80
2022-10-24T20:41:37.346Z,16.82
2022-10-24T20:44:06.421Z,16.79
2022-10-24T20:47:35.570Z,16.76
2022-10-24T20:50:05.297Z,16.65
2022-10-24T20:52:34.107Z,16.63
2022-10-24T20:55:07.696Z,16.66
2022-10-24T20:57:43.302Z,16.67
2022-10-24T21:00:13.988Z,16.65
2022-10-24T21:02:42.358Z,16.59
2022-10-24T21:05:11.405Z,16.62
2022-10-24T21:07:40.116Z,16.64
2022-10-24T21:10:09.581Z,16.58
2022-10-24T21:12:37.939Z,16.55
2022-10-24T21:15:07.887Z,16.51
2022-10-24T21:17:36.552Z,16.48
2022-10-24T21:20:06.370Z,16.46
2022-10-24T21:22:34.676Z,16.41
2022-10-24T21:25:03.193Z,16.34
2022-10-24T21:27:32.185Z,16.27
2022-10-24T21:30:00.538Z,16.22
2022-10-24T21:32:28.955Z,16.23
2022-10-24T21:34:57.629Z,16.27
2022-10-24T21:37:26.108Z,16.29
2022-10-24T21:39:54.459Z,16.27
2022-10-24T21:44:56.261Z,16.24
2022-10-24T21:47:24.756Z,16.24
2022-10-24T21:49:53.092Z,16.29
2022-10-24T21:52:21.553Z,16.33
2022-10-24T21:54:49.857Z,16.38
2022-10-24T21:57:18.197Z,16.43
2022-10-24T21:59:46.686Z,16.42
2022-10-24T22:02:15.114Z,16.37
2022-10-24T22:04:43.682Z,16.28
2022-10-24T22:07:12.061Z,16.18
2022-10-24T22:09:40.407Z,16.09
2022-10-24T22:12:08.951Z,16.11
2022-10-24T22:14:37.314Z,16.22
2022-10-24T22:17:06.066Z,16.29
2022-10-24T22:19:34.455Z,16.30
2022-10-24T22:22:02.811Z,16.35
2022-10-24T22:24:31.160Z,16.39
2022-10-24T22:26:59.469Z,16.43
2022-10-24T22:29:28.128Z,16.44
2022-10-24T22:31:57.648Z,16.41
2022-10-24T22:34:27.872Z,16.42
2022-10-24T22:37:08.336Z,16.43
2022-10-24T22:39:38.069Z,16.41
2022-10-24T22:42:08.694Z,16.40
2022-10-24T22:44:38.181Z,16.40
2022-10-24T22:47:46.432Z,16.42
2022-10-24T22:50:35.241Z,16.37
2022-10-24T22:53:04.914Z,16.34
2022-10-24T22:55:38.292Z,16.31
2022-10-24T22:58:07.729Z,16.25
2022-10-24T23:00:37.249Z,16.23
2022-10-24T23:03:15.393Z,16.25
2022-10-24T23:05:48.644Z,16.24
2022-10-24T23:08:30.485Z,16.23
2022-10-24T23:10:59.873Z,16.16
2022-10-24T23:13:29.985Z,16.13
2022-10-24T23:16:05.985Z,16.14
2022-10-24T23:18:35.554Z,16.12
2022-10-24T23:21:16.938Z,16.12
2022-10-24T23:23:46.314Z,16.10
2022-10-24T23:26:26.527Z,16.05
2022-10-24T23:29:02.644Z,16.09
2022-10-24T23:31:31.924Z,16.12
2022-10-24T23:34:01.295Z,16.16
2022-10-24T23:36:30.778Z,16.17
2022-10-24T23:39:00.127Z,16.16
2022-10-24T23:41:29.532Z,16.16
2022-10-24T23:43:58.835Z,16.18
2022-10-24T23:46:34.494Z,16.16
2022-10-24T23:49:22.450Z,16.12
2022-10-24T23:52:00.345Z,16.08
2022-10-24T23:54:32.423Z,16.05
2022-10-24T23:57:01.782Z,16.02
2022-10-24T23:59:30.109Z,16.00
